sensor_id;sensor_type;location;lat;lon;timestamp;temperature;humidity
10304;DHT22;5197;48.152;8.590;2023-06-26T00:01:41;18.50;1.00
10304;DHT22;5197;48.152;8.590;2023-06-26T00:04:09;18.50;1.00
10304;DHT22;5197;48.152;8.590;2023-06-26T00:06:41;18.40;1.00
10304;DHT22;5197;48.152;8.590;2023-06-26T00:09:09;18.40;1.00
10304;DHT22;5197;48.152;8.590;2023-06-26T00:11:36;18.30;1.00
10304;DHT22;5197;48.152;8.590;2023-06-26T00:14:03;18.20;1.00
10304;DHT22;5197;48.152;8.590;2023-06-26T00:16:30;18.10;1.00
10304;DHT22;5197;48.152;8.590;2023-06-26T00:18:58;18.10;1.00
10304;DHT22;5197;48.152;8.590;2023-06-26T00:21:25;18.10;1.00
10304;DHT22;5197;48.152;8.590;2023-06-26T00:23:54;18.10;1.00
10304;DHT22;5197;48.152;8.590;2023-06-26T00:26:21;18.10;1.00
10304;DHT22;5197;48.152;8.590;2023-06-26T00:28:48;18.10;1.00
10304;DHT22;5197;48.152;8.590;2023-06-26T00:31:15;18.10;1.00
10304;DHT22;5197;48.152;8.590;2023-06-26T00:33:42;18.00;1.00
10304;DHT22;5197;48.152;8.590;2023-06-26T00:36:09;18.00;1.00
10304;DHT22;5197;48.152;8.590;2023-06-26T00:38:36;18.00;1.00
10304;DHT22;5197;48.152;8.590;2023-06-26T00:41:03;17.80;1.00
10304;DHT22;5197;48.152;8.590;2023-06-26T00:43:31;17.80;1.00
10304;DHT22;5197;48.152;8.590;2023-06-26T00:45:58;17.70;1.00
10304;DHT22;5197;48.152;8.590;2023-06-26T00:48:25;17.70;1.00
10304;DHT22;5197;48.152;8.590;2023-06-26T00:50:52;17.60;1.00
10304;DHT22;5197;48.152;8.590;2023-06-26T00:53:20;17.60;1.00
10304;DHT22;5197;48.152;8.590;2023-06-26T00:55:48;17.50;1.00
10304;DHT22;5197;48.152;8.590;2023-06-26T00:58:15;17.50;1.00
10304;DHT22;5197;48.152;8.590;2023-06-26T01:00:42;17.60;1.00
10304;DHT22;5197;48.152;8.590;2023-06-26T01:03:12;17.50;1.00
10304;DHT22;5197;48.152;8.590;2023-06-26T01:05:39;17.60;1.00
10304;DHT22;5197;48.152;8.590;2023-06-26T01:08:07;17.60;1.00
10304;DHT22;5197;48.152;8.590;2023-06-26T01:10:35;17.60;1.00
10304;DHT22;5197;48.152;8.590;2023-06-26T01:13:03;17.70;1.00
10304;DHT22;5197;48.152;8.590;2023-06-26T01:15:30;17.60;1.00
10304;DHT22;5197;48.152;8.590;2023-06-26T01:17:58;17.60;1.00
10304;DHT22;5197;48.152;8.590;2023-06-26T01:20:26;17.60;1.00
10304;DHT22;5197;48.152;8.590;2023-06-26T01:23:29;17.50;1.00
10304;DHT22;5197;48.152;8.590;2023-06-26T01:28:43;17.30;1.00
10304;DHT22;5197;48.152;8.590;2023-06-26T01:31:11;17.30;1.00
10304;DHT22;5197;48.152;8.590;2023-06-26T01:33:40;17.20;1.00
10304;DHT22;5197;48.152;8.590;2023-06-26T01:36:07;17.10;1.00
10304;DHT22;5197;48.152;8.590;2023-06-26T01:38:35;17.00;1.00
10304;DHT22;5197;48.152;8.590;2023-06-26T01:41:03;17.00;1.00
10304;DHT22;5197;48.152;8.590;2023-06-26T01:49:25;16.80;1.00
10304;DHT22;5197;48.152;8.590;2023-06-26T01:52:02;18.20;1.00
10304;DHT22;5197;48.152;8.590;2023-06-26T01:54:33;16.70;1.00
10304;DHT22;5197;48.152;8.590;2023-06-26T01:57:03;16.70;1.00
10304;DHT22;5197;48.152;8.590;2023-06-26T01:59:32;16.70;1.00
10304;DHT22;5197;48.152;8.590;2023-06-26T02:02:01;16.60;1.00
10304;DHT22;5197;48.152;8.590;2023-06-26T02:04:28;16.60;1.00
10304;DHT22;5197;48.152;8.590;2023-06-26T02:06:56;16.60;1.00
10304;DHT22;5197;48.152;8.590;2023-06-26T02:09:23;16.50;1.00
10304;DHT22;5197;48.152;8.590;2023-06-26T02:11:50;16.50;1.00
10304;DHT22;5197;48.152;8.590;2023-06-26T02:14:17;16.50;1.00
10304;DHT22;5197;48.152;8.590;2023-06-26T02:16:44;16.40;1.00
10304;DHT22;5197;48.152;8.590;2023-06-26T02:19:11;16.40;1.00
10304;DHT22;5197;48.152;8.590;2023-06-26T02:21:38;16.40;1.00
10304;DHT22;5197;48.152;8.590;2023-06-26T02:24:05;16.40;1.00
10304;DHT22;5197;48.152;8.590;2023-06-26T02:26:32;16.40;1.00
10304;DHT22;5197;48.152;8.590;2023-06-26T02:28:59;16.40;1.00
10304;DHT22;5197;48.152;8.590;2023-06-26T02:31:26;16.30;1.00
10304;DHT22;5197;48.152;8.590;2023-06-26T02:33:53;16.20;1.00
10304;DHT22;5197;48.152;8.590;2023-06-26T02:36:21;16.10;1.00
10304;DHT22;5197;48.152;8.590;2023-06-26T02:38:48;16.10;1.00
10304;DHT22;5197;48.152;8.590;2023-06-26T02:41:15;16.10;1.00
10304;DHT22;5197;48.152;8.590;2023-06-26T02:43:42;16.10;1.00
10304;DHT22;5197;48.152;8.590;2023-06-26T02:46:09;16.00;1.00
10304;DHT22;5197;48.152;8.590;2023-06-26T02:48:36;16.00;1.00
10304;DHT22;5197;48.152;8.590;2023-06-26T02:51:03;15.90;1.00
10304;DHT22;5197;48.152;8.590;2023-06-26T02:53:31;15.90;1.00
10304;DHT22;5197;48.152;8.590;2023-06-26T02:55:58;15.90;1.00
10304;DHT22;5197;48.152;8.590;2023-06-26T02:58:25;16.00;1.00
10304;DHT22;5197;48.152;8.590;2023-06-26T03:00:52;15.90;1.00
10304;DHT22;5197;48.152;8.590;2023-06-26T03:03:20;15.90;1.00
10304;DHT22;5197;48.152;8.590;2023-06-26T03:05:47;15.90;1.00
10304;DHT22;5197;48.152;8.590;2023-06-26T03:08:14;15.90;1.00
10304;DHT22;5197;48.152;8.590;2023-06-26T03:10:41;15.90;1.00
10304;DHT22;5197;48.152;8.590;2023-06-26T03:13:09;15.80;1.00
10304;DHT22;5197;48.152;8.590;2023-06-26T03:15:36;15.90;1.00
10304;DHT22;5197;48.152;8.590;2023-06-26T03:18:03;15.80;1.00
10304;DHT22;5197;48.152;8.590;2023-06-26T03:20:30;15.70;1.00
10304;DHT22;5197;48.152;8.590;2023-06-26T03:22:57;15.70;1.30
10304;DHT22;5197;48.152;8.590;2023-06-26T03:25:24;15.70;1.30
10304;DHT22;5197;48.152;8.590;2023-06-26T03:27:51;15.70;1.30
10304;DHT22;5197;48.152;8.590;2023-06-26T03:30:18;15.70;1.30
10304;DHT22;5197;48.152;8.590;2023-06-26T03:32:45;15.90;1.50
10304;DHT22;5197;48.152;8.590;2023-06-26T03:35:12;15.70;1.30
10304;DHT22;5197;48.152;8.590;2023-06-26T03:37:39;15.80;1.40
10304;DHT22;5197;48.152;8.590;2023-06-26T03:40:07;15.80;1.50
10304;DHT22;5197;48.152;8.590;2023-06-26T03:42:35;15.80;1.50
10304;DHT22;5197;48.152;8.590;2023-06-26T03:45:02;15.80;1.50
10304;DHT22;5197;48.152;8.590;2023-06-26T03:47:29;15.70;1.50
10304;DHT22;5197;48.152;8.590;2023-06-26T03:49:56;15.80;1.40
10304;DHT22;5197;48.152;8.590;2023-06-26T03:52:23;15.70;1.30
10304;DHT22;5197;48.152;8.590;2023-06-26T03:54:50;15.70;1.40
10304;DHT22;5197;48.152;8.590;2023-06-26T03:57:17;15.70;1.30
10304;DHT22;5197;48.152;8.590;2023-06-26T03:59:45;15.60;1.50
10304;DHT22;5197;48.152;8.590;2023-06-26T04:02:11;15.60;1.40
10304;DHT22;5197;48.152;8.590;2023-06-26T04:04:39;15.60;1.30
10304;DHT22;5197;48.152;8.590;2023-06-26T04:07:06;15.60;1.30
10304;DHT22;5197;48.152;8.590;2023-06-26T04:09:33;15.60;1.30
10304;DHT22;5197;48.152;8.590;2023-06-26T04:12:01;15.60;1.30
10304;DHT22;5197;48.152;8.590;2023-06-26T04:14:28;15.60;1.20
10304;DHT22;5197;48.152;8.590;2023-06-26T04:16:55;15.60;1.30
10304;DHT22;5197;48.152;8.590;2023-06-26T04:19:24;15.60;1.30
10304;DHT22;5197;48.152;8.590;2023-06-26T04:21:51;15.60;1.40
10304;DHT22;5197;48.152;8.590;2023-06-26T04:24:18;15.60;3.00
10304;DHT22;5197;48.152;8.590;2023-06-26T04:26:45;15.60;2.40
10304;DHT22;5197;48.152;8.590;2023-06-26T04:29:12;15.60;2.60
10304;DHT22;5197;48.152;8.590;2023-06-26T04:31:40;15.60;2.80
10304;DHT22;5197;48.152;8.590;2023-06-26T04:34:07;15.60;2.70
10304;DHT22;5197;48.152;8.590;2023-06-26T04:36:34;15.70;2.70
10304;DHT22;5197;48.152;8.590;2023-06-26T04:39:05;15.70;3.00
10304;DHT22;5197;48.152;8.590;2023-06-26T04:41:33;15.80;3.10
10304;DHT22;5197;48.152;8.590;2023-06-26T04:44:00;15.80;3.30
10304;DHT22;5197;48.152;8.590;2023-06-26T04:46:27;15.80;3.30
10304;DHT22;5197;48.152;8.590;2023-06-26T04:48:54;15.90;3.60
10304;DHT22;5197;48.152;8.590;2023-06-26T04:51:25;15.90;3.80
10304;DHT22;5197;48.152;8.590;2023-06-26T04:53:54;16.00;4.00
10304;DHT22;5197;48.152;8.590;2023-06-26T04:56:21;16.10;4.10
10304;DHT22;5197;48.152;8.590;2023-06-26T04:58:48;16.20;3.80
10304;DHT22;5197;48.152;8.590;2023-06-26T05:01:15;16.20;4.30
10304;DHT22;5197;48.152;8.590;2023-06-26T05:03:43;16.30;2.80
10304;DHT22;5197;48.152;8.590;2023-06-26T05:06:12;16.50;1.90
10304;DHT22;5197;48.152;8.590;2023-06-26T05:08:39;16.50;1.90
10304;DHT22;5197;48.152;8.590;2023-06-26T05:11:06;16.60;1.90
10304;DHT22;5197;48.152;8.590;2023-06-26T05:13:33;16.80;2.10
10304;DHT22;5197;48.152;8.590;2023-06-26T05:16:00;16.80;2.10
10304;DHT22;5197;48.152;8.590;2023-06-26T05:18:27;16.90;2.20
10304;DHT22;5197;48.152;8.590;2023-06-26T05:20:55;17.10;2.60
10304;DHT22;5197;48.152;8.590;2023-06-26T05:23:23;17.20;2.40
10304;DHT22;5197;48.152;8.590;2023-06-26T05:25:52;17.30;2.40
10304;DHT22;5197;48.152;8.590;2023-06-26T05:28:20;17.40;1.60
10304;DHT22;5197;48.152;8.590;2023-06-26T05:30:47;17.60;1.10
10304;DHT22;5197;48.152;8.590;2023-06-26T05:33:14;17.80;1.00
10304;DHT22;5197;48.152;8.590;2023-06-26T05:35:45;17.90;1.00
10304;DHT22;5197;48.152;8.590;2023-06-26T05:38:13;18.10;1.00
10304;DHT22;5197;48.152;8.590;2023-06-26T05:40:41;18.30;1.00
10304;DHT22;5197;48.152;8.590;2023-06-26T05:43:08;18.50;1.00
10304;DHT22;5197;48.152;8.590;2023-06-26T05:45:36;18.70;1.00
10304;DHT22;5197;48.152;8.590;2023-06-26T05:48:03;19.00;1.00
10304;DHT22;5197;48.152;8.590;2023-06-26T05:50:31;19.40;1.00
10304;DHT22;5197;48.152;8.590;2023-06-26T05:53:00;19.70;1.00
10304;DHT22;5197;48.152;8.590;2023-06-26T05:55:30;20.00;1.00
10304;DHT22;5197;48.152;8.590;2023-06-26T05:57:58;20.40;1.00
10304;DHT22;5197;48.152;8.590;2023-06-26T06:00:27;20.70;1.00
10304;DHT22;5197;48.152;8.590;2023-06-26T06:02:55;21.10;1.00
10304;DHT22;5197;48.152;8.590;2023-06-26T06:05:22;21.40;1.00
10304;DHT22;5197;48.152;8.590;2023-06-26T06:07:50;21.70;1.00
10304;DHT22;5197;48.152;8.590;2023-06-26T06:10:17;21.90;1.00
10304;DHT22;5197;48.152;8.590;2023-06-26T06:12:44;22.20;1.00
10304;DHT22;5197;48.152;8.590;2023-06-26T06:15:11;22.40;1.00
10304;DHT22;5197;48.152;8.590;2023-06-26T06:17:39;22.60;1.00
10304;DHT22;5197;48.152;8.590;2023-06-26T06:20:06;22.90;1.00
10304;DHT22;5197;48.152;8.590;2023-06-26T06:22:33;23.10;1.00
10304;DHT22;5197;48.152;8.590;2023-06-26T06:25:00;23.40;1.00
10304;DHT22;5197;48.152;8.590;2023-06-26T06:27:27;23.60;1.00
10304;DHT22;5197;48.152;8.590;2023-06-26T06:29:55;23.70;1.00
10304;DHT22;5197;48.152;8.590;2023-06-26T06:32:22;23.90;1.00
10304;DHT22;5197;48.152;8.590;2023-06-26T06:34:49;24.00;1.00
10304;DHT22;5197;48.152;8.590;2023-06-26T06:37:16;24.20;1.00
10304;DHT22;5197;48.152;8.590;2023-06-26T06:39:43;24.30;1.00
10304;DHT22;5197;48.152;8.590;2023-06-26T06:42:10;24.40;1.00
10304;DHT22;5197;48.152;8.590;2023-06-26T06:44:37;24.50;1.00
10304;DHT22;5197;48.152;8.590;2023-06-26T06:47:05;24.50;1.00
10304;DHT22;5197;48.152;8.590;2023-06-26T06:49:32;24.70;1.00
10304;DHT22;5197;48.152;8.590;2023-06-26T06:51:59;24.80;1.00
10304;DHT22;5197;48.152;8.590;2023-06-26T06:54:26;24.90;1.00
10304;DHT22;5197;48.152;8.590;2023-06-26T06:56:55;25.00;1.00
10304;DHT22;5197;48.152;8.590;2023-06-26T06:59:22;25.10;1.00
10304;DHT22;5197;48.152;8.590;2023-06-26T07:01:49;25.20;1.00
10304;DHT22;5197;48.152;8.590;2023-06-26T07:04:16;25.40;1.00
10304;DHT22;5197;48.152;8.590;2023-06-26T07:06:43;25.50;1.00
10304;DHT22;5197;48.152;8.590;2023-06-26T07:09:10;25.70;1.00
10304;DHT22;5197;48.152;8.590;2023-06-26T07:11:38;25.80;1.00
10304;DHT22;5197;48.152;8.590;2023-06-26T07:14:05;25.90;1.00
10304;DHT22;5197;48.152;8.590;2023-06-26T07:16:32;26.10;1.00
10304;DHT22;5197;48.152;8.590;2023-06-26T07:18:59;26.20;1.00
10304;DHT22;5197;48.152;8.590;2023-06-26T07:21:26;26.30;1.00
10304;DHT22;5197;48.152;8.590;2023-06-26T07:23:53;26.50;1.00
10304;DHT22;5197;48.152;8.590;2023-06-26T07:26:20;26.50;1.00
10304;DHT22;5197;48.152;8.590;2023-06-26T07:29:01;26.60;1.00
10304;DHT22;5197;48.152;8.590;2023-06-26T07:31:29;26.80;1.00
10304;DHT22;5197;48.152;8.590;2023-06-26T07:33:56;26.90;1.00
10304;DHT22;5197;48.152;8.590;2023-06-26T07:36:23;27.10;1.00
10304;DHT22;5197;48.152;8.590;2023-06-26T07:38:50;27.30;1.00
10304;DHT22;5197;48.152;8.590;2023-06-26T07:41:17;27.40;1.00
10304;DHT22;5197;48.152;8.590;2023-06-26T07:43:44;27.50;1.00
10304;DHT22;5197;48.152;8.590;2023-06-26T07:46:11;27.70;1.00
10304;DHT22;5197;48.152;8.590;2023-06-26T07:48:39;27.80;1.00
10304;DHT22;5197;48.152;8.590;2023-06-26T07:51:07;27.90;1.00
10304;DHT22;5197;48.152;8.590;2023-06-26T07:53:34;28.00;1.00
10304;DHT22;5197;48.152;8.590;2023-06-26T07:56:01;28.10;1.00
10304;DHT22;5197;48.152;8.590;2023-06-26T07:58:28;28.20;1.00
10304;DHT22;5197;48.152;8.590;2023-06-26T08:00:55;28.30;1.00
10304;DHT22;5197;48.152;8.590;2023-06-26T08:03:22;28.40;1.00
10304;DHT22;5197;48.152;8.590;2023-06-26T08:06:01;28.40;1.00
10304;DHT22;5197;48.152;8.590;2023-06-26T08:08:28;28.40;1.00
10304;DHT22;5197;48.152;8.590;2023-06-26T08:10:55;28.10;1.00
10304;DHT22;5197;48.152;8.590;2023-06-26T08:13:22;27.60;1.00
10304;DHT22;5197;48.152;8.590;2023-06-26T08:15:50;27.20;1.00
10304;DHT22;5197;48.152;8.590;2023-06-26T08:18:18;26.90;1.00
10304;DHT22;5197;48.152;8.590;2023-06-26T08:20:45;26.80;1.00
10304;DHT22;5197;48.152;8.590;2023-06-26T08:23:12;26.90;1.00
10304;DHT22;5197;48.152;8.590;2023-06-26T08:25:39;27.00;1.00
10304;DHT22;5197;48.152;8.590;2023-06-26T08:28:06;26.90;1.00
10304;DHT22;5197;48.152;8.590;2023-06-26T08:30:37;27.00;1.00
10304;DHT22;5197;48.152;8.590;2023-06-26T08:33:05;27.00;1.00
10304;DHT22;5197;48.152;8.590;2023-06-26T08:35:32;26.90;1.00
10304;DHT22;5197;48.152;8.590;2023-06-26T08:37:59;27.00;1.00
10304;DHT22;5197;48.152;8.590;2023-06-26T08:40:26;27.10;1.00
10304;DHT22;5197;48.152;8.590;2023-06-26T08:42:54;27.30;1.00
10304;DHT22;5197;48.152;8.590;2023-06-26T08:45:21;27.40;1.00
10304;DHT22;5197;48.152;8.590;2023-06-26T08:47:51;27.40;1.00
10304;DHT22;5197;48.152;8.590;2023-06-26T08:50:27;27.30;1.00
10304;DHT22;5197;48.152;8.590;2023-06-26T08:52:58;27.40;1.00
10304;DHT22;5197;48.152;8.590;2023-06-26T08:55:31;27.50;1.00
10304;DHT22;5197;48.152;8.590;2023-06-26T08:58:00;27.60;1.00
10304;DHT22;5197;48.152;8.590;2023-06-26T09:00:30;27.70;1.00
10304;DHT22;5197;48.152;8.590;2023-06-26T09:02:58;27.80;1.00
10304;DHT22;5197;48.152;8.590;2023-06-26T09:05:26;27.90;1.00
10304;DHT22;5197;48.152;8.590;2023-06-26T09:07:58;27.80;1.00
10304;DHT22;5197;48.152;8.590;2023-06-26T09:10:25;27.70;1.00
10304;DHT22;5197;48.152;8.590;2023-06-26T09:12:55;27.80;1.00
10304;DHT22;5197;48.152;8.590;2023-06-26T09:15:24;27.90;1.00
10304;DHT22;5197;48.152;8.590;2023-06-26T09:17:56;28.10;1.00
10304;DHT22;5197;48.152;8.590;2023-06-26T09:20:23;28.30;1.00
10304;DHT22;5197;48.152;8.590;2023-06-26T09:22:54;28.40;1.00
10304;DHT22;5197;48.152;8.590;2023-06-26T09:25:22;28.40;1.00
10304;DHT22;5197;48.152;8.590;2023-06-26T09:27:49;28.70;1.00
10304;DHT22;5197;48.152;8.590;2023-06-26T09:30:19;28.80;1.00
10304;DHT22;5197;48.152;8.590;2023-06-26T09:32:47;28.70;1.00
10304;DHT22;5197;48.152;8.590;2023-06-26T09:35:15;28.60;1.00
10304;DHT22;5197;48.152;8.590;2023-06-26T09:37:42;28.50;1.00
10304;DHT22;5197;48.152;8.590;2023-06-26T09:40:10;28.30;1.00
10304;DHT22;5197;48.152;8.590;2023-06-26T09:42:37;28.30;1.00
10304;DHT22;5197;48.152;8.590;2023-06-26T09:45:04;28.20;1.00
10304;DHT22;5197;48.152;8.590;2023-06-26T09:47:34;28.10;1.00
10304;DHT22;5197;48.152;8.590;2023-06-26T09:50:04;28.10;1.00
10304;DHT22;5197;48.152;8.590;2023-06-26T09:52:32;28.20;1.00
10304;DHT22;5197;48.152;8.590;2023-06-26T09:55:09;28.20;1.00
10304;DHT22;5197;48.152;8.590;2023-06-26T09:57:38;28.30;1.00
10304;DHT22;5197;48.152;8.590;2023-06-26T10:00:06;28.20;1.00
10304;DHT22;5197;48.152;8.590;2023-06-26T10:02:35;28.10;1.00
10304;DHT22;5197;48.152;8.590;2023-06-26T10:05:02;28.00;1.00
10304;DHT22;5197;48.152;8.590;2023-06-26T10:07:31;28.00;1.00
10304;DHT22;5197;48.152;8.590;2023-06-26T10:10:00;28.20;1.00
10304;DHT22;5197;48.152;8.590;2023-06-26T10:12:30;28.40;1.00
10304;DHT22;5197;48.152;8.590;2023-06-26T10:14:58;28.50;1.00
10304;DHT22;5197;48.152;8.590;2023-06-26T10:17:35;28.10;1.00
10304;DHT22;5197;48.152;8.590;2023-06-26T10:20:06;28.00;1.00
10304;DHT22;5197;48.152;8.590;2023-06-26T10:22:41;28.00;1.00
10304;DHT22;5197;48.152;8.590;2023-06-26T10:25:10;28.00;1.00
10304;DHT22;5197;48.152;8.590;2023-06-26T10:27:41;27.80;1.00
10304;DHT22;5197;48.152;8.590;2023-06-26T10:30:19;27.60;1.00
10304;DHT22;5197;48.152;8.590;2023-06-26T10:32:48;27.60;1.00
10304;DHT22;5197;48.152;8.590;2023-06-26T10:35:16;27.70;1.00
10304;DHT22;5197;48.152;8.590;2023-06-26T10:37:47;27.50;1.00
10304;DHT22;5197;48.152;8.590;2023-06-26T10:40:26;27.30;1.00
10304;DHT22;5197;48.152;8.590;2023-06-26T10:43:07;27.10;1.00
10304;DHT22;5197;48.152;8.590;2023-06-26T10:45:35;26.80;1.00
10304;DHT22;5197;48.152;8.590;2023-06-26T10:48:04;26.70;1.00
10304;DHT22;5197;48.152;8.590;2023-06-26T10:50:32;26.70;1.00
10304;DHT22;5197;48.152;8.590;2023-06-26T10:56:01;26.30;1.00
10304;DHT22;5197;48.152;8.590;2023-06-26T11:01:21;26.40;1.00
10304;DHT22;5197;48.152;8.590;2023-06-26T11:06:26;26.70;1.00
10304;DHT22;5197;48.152;8.590;2023-06-26T11:14:19;26.80;1.00
10304;DHT22;5197;48.152;8.590;2023-06-26T11:16:47;26.90;1.00
10304;DHT22;5197;48.152;8.590;2023-06-26T11:19:17;27.10;1.00
10304;DHT22;5197;48.152;8.590;2023-06-26T11:21:45;27.10;1.00
10304;DHT22;5197;48.152;8.590;2023-06-26T11:24:13;26.90;1.00
10304;DHT22;5197;48.152;8.590;2023-06-26T11:26:41;26.70;1.00
10304;DHT22;5197;48.152;8.590;2023-06-26T11:29:10;26.50;1.00
10304;DHT22;5197;48.152;8.590;2023-06-26T11:31:39;26.30;1.00
10304;DHT22;5197;48.152;8.590;2023-06-26T11:34:10;26.20;1.00
10304;DHT22;5197;48.152;8.590;2023-06-26T11:36:41;26.30;1.00
10304;DHT22;5197;48.152;8.590;2023-06-26T11:39:09;26.40;1.00
10304;DHT22;5197;48.152;8.590;2023-06-26T11:41:39;26.50;1.00
10304;DHT22;5197;48.152;8.590;2023-06-26T11:44:08;26.60;1.00
10304;DHT22;5197;48.152;8.590;2023-06-26T11:46:38;26.80;1.00
10304;DHT22;5197;48.152;8.590;2023-06-26T11:49:06;26.80;1.00
10304;DHT22;5197;48.152;8.590;2023-06-26T11:51:35;26.90;1.00
10304;DHT22;5197;48.152;8.590;2023-06-26T11:54:04;26.90;1.00
10304;DHT22;5197;48.152;8.590;2023-06-26T11:56:32;27.00;1.00
10304;DHT22;5197;48.152;8.590;2023-06-26T12:04:03;27.50;1.00
10304;DHT22;5197;48.152;8.590;2023-06-26T12:06:33;27.50;1.00
10304;DHT22;5197;48.152;8.590;2023-06-26T12:09:02;27.40;1.00
10304;DHT22;5197;48.152;8.590;2023-06-26T12:11:33;27.40;1.00
10304;DHT22;5197;48.152;8.590;2023-06-26T12:14:01;27.40;1.00
10304;DHT22;5197;48.152;8.590;2023-06-26T12:16:30;27.40;1.00
10304;DHT22;5197;48.152;8.590;2023-06-26T12:19:05;27.50;1.00
10304;DHT22;5197;48.152;8.590;2023-06-26T12:24:09;27.10;1.00
10304;DHT22;5197;48.152;8.590;2023-06-26T12:26:37;27.20;1.00
10304;DHT22;5197;48.152;8.590;2023-06-26T12:29:06;27.40;1.00
10304;DHT22;5197;48.152;8.590;2023-06-26T12:31:34;27.60;1.00
10304;DHT22;5197;48.152;8.590;2023-06-26T12:34:02;27.70;1.00
10304;DHT22;5197;48.152;8.590;2023-06-26T12:36:29;27.50;1.00
10304;DHT22;5197;48.152;8.590;2023-06-26T12:39:08;27.40;1.00
10304;DHT22;5197;48.152;8.590;2023-06-26T12:44:21;27.30;1.00
10304;DHT22;5197;48.152;8.590;2023-06-26T12:46:50;27.10;1.00
10304;DHT22;5197;48.152;8.590;2023-06-26T12:49:20;26.90;1.00
10304;DHT22;5197;48.152;8.590;2023-06-26T12:51:59;26.60;1.00
10304;DHT22;5197;48.152;8.590;2023-06-26T12:54:28;26.30;1.00
10304;DHT22;5197;48.152;8.590;2023-06-26T12:56:56;26.50;1.00
10304;DHT22;5197;48.152;8.590;2023-06-26T12:59:23;26.70;1.00
10304;DHT22;5197;48.152;8.590;2023-06-26T13:01:51;26.90;1.00
10304;DHT22;5197;48.152;8.590;2023-06-26T13:04:18;27.00;1.00
10304;DHT22;5197;48.152;8.590;2023-06-26T13:06:45;26.90;1.00
10304;DHT22;5197;48.152;8.590;2023-06-26T13:09:12;26.90;1.00
10304;DHT22;5197;48.152;8.590;2023-06-26T13:11:39;26.90;1.00
10304;DHT22;5197;48.152;8.590;2023-06-26T13:14:07;26.80;1.00
10304;DHT22;5197;48.152;8.590;2023-06-26T13:16:38;26.70;1.00
10304;DHT22;5197;48.152;8.590;2023-06-26T13:19:05;26.70;1.00
10304;DHT22;5197;48.152;8.590;2023-06-26T13:21:34;26.60;1.00
10304;DHT22;5197;48.152;8.590;2023-06-26T13:24:01;26.60;1.00
10304;DHT22;5197;48.152;8.590;2023-06-26T13:26:30;26.60;1.00
10304;DHT22;5197;48.152;8.590;2023-06-26T13:29:01;26.60;1.00
10304;DHT22;5197;48.152;8.590;2023-06-26T13:31:28;26.60;1.00
10304;DHT22;5197;48.152;8.590;2023-06-26T13:33:58;26.70;1.00
10304;DHT22;5197;48.152;8.590;2023-06-26T13:36:26;26.70;1.00
10304;DHT22;5197;48.152;8.590;2023-06-26T13:38:53;26.90;1.00
10304;DHT22;5197;48.152;8.590;2023-06-26T13:41:24;27.10;1.00
10304;DHT22;5197;48.152;8.590;2023-06-26T13:43:52;27.10;1.00
10304;DHT22;5197;48.152;8.590;2023-06-26T13:46:21;27.00;1.00
10304;DHT22;5197;48.152;8.590;2023-06-26T13:48:48;27.00;1.00
10304;DHT22;5197;48.152;8.590;2023-06-26T13:51:16;26.80;1.00
10304;DHT22;5197;48.152;8.590;2023-06-26T13:53:43;26.70;1.00
10304;DHT22;5197;48.152;8.590;2023-06-26T13:56:10;26.60;1.00
10304;DHT22;5197;48.152;8.590;2023-06-26T13:58:37;26.60;1.00
10304;DHT22;5197;48.152;8.590;2023-06-26T14:01:05;26.60;1.00
10304;DHT22;5197;48.152;8.590;2023-06-26T14:03:32;26.50;1.00
10304;DHT22;5197;48.152;8.590;2023-06-26T14:06:00;26.60;1.00
10304;DHT22;5197;48.152;8.590;2023-06-26T14:08:28;26.80;1.00
10304;DHT22;5197;48.152;8.590;2023-06-26T14:10:55;27.90;1.00
10304;DHT22;5197;48.152;8.590;2023-06-26T14:13:22;26.60;1.00
10304;DHT22;5197;48.152;8.590;2023-06-26T14:15:50;26.40;1.00
10304;DHT22;5197;48.152;8.590;2023-06-26T14:18:20;26.50;1.00
10304;DHT22;5197;48.152;8.590;2023-06-26T14:20:51;26.60;1.00
10304;DHT22;5197;48.152;8.590;2023-06-26T14:23:18;26.90;1.00
10304;DHT22;5197;48.152;8.590;2023-06-26T14:25:46;27.10;1.00
10304;DHT22;5197;48.152;8.590;2023-06-26T14:28:15;26.90;1.00
10304;DHT22;5197;48.152;8.590;2023-06-26T14:30:42;27.00;1.00
10304;DHT22;5197;48.152;8.590;2023-06-26T14:33:10;27.20;1.00
10304;DHT22;5197;48.152;8.590;2023-06-26T14:35:37;27.10;1.00
10304;DHT22;5197;48.152;8.590;2023-06-26T14:38:04;26.80;1.00
10304;DHT22;5197;48.152;8.590;2023-06-26T14:40:31;26.60;1.00
10304;DHT22;5197;48.152;8.590;2023-06-26T14:42:58;26.50;1.00
10304;DHT22;5197;48.152;8.590;2023-06-26T14:45:26;26.50;1.00
10304;DHT22;5197;48.152;8.590;2023-06-26T14:47:53;26.60;1.00
10304;DHT22;5197;48.152;8.590;2023-06-26T14:50:22;26.70;1.00
10304;DHT22;5197;48.152;8.590;2023-06-26T14:52:49;26.60;1.00
10304;DHT22;5197;48.152;8.590;2023-06-26T14:55:18;26.50;1.00
10304;DHT22;5197;48.152;8.590;2023-06-26T14:57:45;26.70;1.00
10304;DHT22;5197;48.152;8.590;2023-06-26T15:00:13;26.80;1.00
10304;DHT22;5197;48.152;8.590;2023-06-26T15:02:40;26.60;1.00
10304;DHT22;5197;48.152;8.590;2023-06-26T15:05:08;26.30;1.00
10304;DHT22;5197;48.152;8.590;2023-06-26T15:07:38;26.20;1.00
10304;DHT22;5197;48.152;8.590;2023-06-26T15:10:06;26.30;1.00
10304;DHT22;5197;48.152;8.590;2023-06-26T15:12:33;26.20;1.00
10304;DHT22;5197;48.152;8.590;2023-06-26T15:15:04;26.30;1.00
10304;DHT22;5197;48.152;8.590;2023-06-26T15:17:31;26.30;1.00
10304;DHT22;5197;48.152;8.590;2023-06-26T15:19:59;26.20;1.00
10304;DHT22;5197;48.152;8.590;2023-06-26T15:22:27;26.10;1.00
10304;DHT22;5197;48.152;8.590;2023-06-26T15:24:54;26.10;1.00
10304;DHT22;5197;48.152;8.590;2023-06-26T15:27:26;25.90;1.00
10304;DHT22;5197;48.152;8.590;2023-06-26T15:29:53;25.80;1.00
10304;DHT22;5197;48.152;8.590;2023-06-26T15:32:21;25.80;1.00
10304;DHT22;5197;48.152;8.590;2023-06-26T15:34:48;25.90;1.00
10304;DHT22;5197;48.152;8.590;2023-06-26T15:37:15;26.00;1.00
10304;DHT22;5197;48.152;8.590;2023-06-26T15:39:42;26.10;1.00
10304;DHT22;5197;48.152;8.590;2023-06-26T15:42:09;26.00;1.00
10304;DHT22;5197;48.152;8.590;2023-06-26T15:44:37;26.00;1.00
10304;DHT22;5197;48.152;8.590;2023-06-26T15:47:06;25.90;1.00
10304;DHT22;5197;48.152;8.590;2023-06-26T15:49:33;25.90;1.00
10304;DHT22;5197;48.152;8.590;2023-06-26T15:52:00;26.00;1.00
10304;DHT22;5197;48.152;8.590;2023-06-26T15:54:27;25.90;1.00
10304;DHT22;5197;48.152;8.590;2023-06-26T15:56:54;25.90;1.00
10304;DHT22;5197;48.152;8.590;2023-06-26T15:59:21;26.10;1.00
10304;DHT22;5197;48.152;8.590;2023-06-26T16:01:48;26.10;1.00
10304;DHT22;5197;48.152;8.590;2023-06-26T16:04:18;26.10;1.00
10304;DHT22;5197;48.152;8.590;2023-06-26T16:06:46;26.20;1.00
10304;DHT22;5197;48.152;8.590;2023-06-26T16:09:13;25.90;1.00
10304;DHT22;5197;48.152;8.590;2023-06-26T16:11:42;25.90;1.00
10304;DHT22;5197;48.152;8.590;2023-06-26T16:14:09;25.90;1.00
10304;DHT22;5197;48.152;8.590;2023-06-26T16:16:36;25.90;1.00
10304;DHT22;5197;48.152;8.590;2023-06-26T16:19:04;25.90;1.00
10304;DHT22;5197;48.152;8.590;2023-06-26T16:21:32;26.00;1.00
10304;DHT22;5197;48.152;8.590;2023-06-26T16:24:00;26.00;1.00
10304;DHT22;5197;48.152;8.590;2023-06-26T16:26:27;25.80;1.00
10304;DHT22;5197;48.152;8.590;2023-06-26T16:28:55;25.80;1.00
10304;DHT22;5197;48.152;8.590;2023-06-26T16:31:24;25.60;1.00
10304;DHT22;5197;48.152;8.590;2023-06-26T16:33:52;25.50;1.00
10304;DHT22;5197;48.152;8.590;2023-06-26T16:36:23;25.60;1.00
10304;DHT22;5197;48.152;8.590;2023-06-26T16:38:51;25.70;1.00
10304;DHT22;5197;48.152;8.590;2023-06-26T16:41:19;25.60;1.00